sensor_id;sensor_type;location;lat;lon;timestamp;temperature;humidity
23069;DHT22;11702;50.856;4.348;2022-08-04T00:01:03;24.10;99.90
23069;DHT22;11702;50.856;4.348;2022-08-04T00:03:54;24.00;99.90
23069;DHT22;11702;50.856;4.348;2022-08-04T00:06:33;24.10;99.90
23069;DHT22;11702;50.856;4.348;2022-08-04T00:09:09;24.10;99.90
23069;DHT22;11702;50.856;4.348;2022-08-04T00:11:38;24.00;99.90
23069;DHT22;11702;50.856;4.348;2022-08-04T00:14:12;24.00;99.90
23069;DHT22;11702;50.856;4.348;2022-08-04T00:16:40;24.00;99.90
23069;DHT22;11702;50.856;4.348;2022-08-04T00:19:11;23.90;99.90
23069;DHT22;11702;50.856;4.348;2022-08-04T00:21:39;23.90;99.90
23069;DHT22;11702;50.856;4.348;2022-08-04T00:24:08;23.90;99.90
23069;DHT22;11702;50.856;4.348;2022-08-04T00:26:35;23.90;99.90
23069;DHT22;11702;50.856;4.348;2022-08-04T00:29:01;23.80;99.90
23069;DHT22;11702;50.856;4.348;2022-08-04T00:31:27;23.80;99.90
23069;DHT22;11702;50.856;4.348;2022-08-04T00:33:54;23.80;99.90
23069;DHT22;11702;50.856;4.348;2022-08-04T00:36:20;23.80;99.90
23069;DHT22;11702;50.856;4.348;2022-08-04T00:38:46;23.80;99.90
23069;DHT22;11702;50.856;4.348;2022-08-04T00:41:36;23.80;99.90
23069;DHT22;11702;50.856;4.348;2022-08-04T00:47:43;23.60;99.90
23069;DHT22;11702;50.856;4.348;2022-08-04T00:50:23;23.60;99.90
23069;DHT22;11702;50.856;4.348;2022-08-04T00:53:12;23.60;99.90
23069;DHT22;11702;50.856;4.348;2022-08-04T00:56:02;23.60;99.90
23069;DHT22;11702;50.856;4.348;2022-08-04T01:03:49;23.40;99.90
23069;DHT22;11702;50.856;4.348;2022-08-04T01:06:28;23.50;99.90
23069;DHT22;11702;50.856;4.348;2022-08-04T01:12:15;23.50;99.90
23069;DHT22;11702;50.856;4.348;2022-08-04T01:20:43;23.30;99.90
23069;DHT22;11702;50.856;4.348;2022-08-04T01:29:13;23.10;99.90
23069;DHT22;11702;50.856;4.348;2022-08-04T01:34:15;23.00;99.90
23069;DHT22;11702;50.856;4.348;2022-08-04T01:37:02;23.00;99.90
23069;DHT22;11702;50.856;4.348;2022-08-04T01:39:33;22.90;99.90
23069;DHT22;11702;50.856;4.348;2022-08-04T01:42:05;22.80;99.90
23069;DHT22;11702;50.856;4.348;2022-08-04T01:44:32;22.80;99.90
23069;DHT22;11702;50.856;4.348;2022-08-04T01:47:00;22.70;99.90
23069;DHT22;11702;50.856;4.348;2022-08-04T01:49:31;22.70;99.90
23069;DHT22;11702;50.856;4.348;2022-08-04T01:51:57;22.80;99.90
23069;DHT22;11702;50.856;4.348;2022-08-04T01:54:23;22.80;99.90
23069;DHT22;11702;50.856;4.348;2022-08-04T01:56:50;22.80;99.90
23069;DHT22;11702;50.856;4.348;2022-08-04T01:59:20;22.80;99.90
23069;DHT22;11702;50.856;4.348;2022-08-04T02:01:47;22.70;99.90
23069;DHT22;11702;50.856;4.348;2022-08-04T02:04:15;22.70;99.90
23069;DHT22;11702;50.856;4.348;2022-08-04T02:09:28;22.70;99.90
23069;DHT22;11702;50.856;4.348;2022-08-04T02:12:04;22.60;99.90
23069;DHT22;11702;50.856;4.348;2022-08-04T02:14:55;22.60;99.90
23069;DHT22;11702;50.856;4.348;2022-08-04T02:17:39;22.70;99.90
23069;DHT22;11702;50.856;4.348;2022-08-04T02:20:22;22.60;99.90
23069;DHT22;11702;50.856;4.348;2022-08-04T02:23:03;22.60;99.90
23069;DHT22;11702;50.856;4.348;2022-08-04T02:25:36;22.60;99.90
23069;DHT22;11702;50.856;4.348;2022-08-04T02:28:20;22.70;99.90
23069;DHT22;11702;50.856;4.348;2022-08-04T02:31:21;22.60;99.90
23069;DHT22;11702;50.856;4.348;2022-08-04T02:34:00;22.60;99.90
23069;DHT22;11702;50.856;4.348;2022-08-04T02:36:34;22.50;99.90
23069;DHT22;11702;50.856;4.348;2022-08-04T02:39:02;22.50;99.90
23069;DHT22;11702;50.856;4.348;2022-08-04T02:41:30;22.40;99.90
23069;DHT22;11702;50.856;4.348;2022-08-04T02:44:07;22.30;99.90
23069;DHT22;11702;50.856;4.348;2022-08-04T02:46:35;22.20;99.90
23069;DHT22;11702;50.856;4.348;2022-08-04T02:49:04;22.20;99.90
23069;DHT22;11702;50.856;4.348;2022-08-04T02:51:34;22.30;99.90
23069;DHT22;11702;50.856;4.348;2022-08-04T02:54:02;22.30;99.90
23069;DHT22;11702;50.856;4.348;2022-08-04T02:56:30;22.20;99.90
23069;DHT22;11702;50.856;4.348;2022-08-04T02:59:04;22.10;99.90
23069;DHT22;11702;50.856;4.348;2022-08-04T03:01:31;22.10;99.90
23069;DHT22;11702;50.856;4.348;2022-08-04T03:23:45;21.70;99.90
23069;DHT22;11702;50.856;4.348;2022-08-04T03:29:40;21.70;99.90
23069;DHT22;11702;50.856;4.348;2022-08-04T03:41:24;21.50;99.90
23069;DHT22;11702;50.856;4.348;2022-08-04T04:09:26;21.60;99.90
23069;DHT22;11702;50.856;4.348;2022-08-04T04:12:13;21.60;99.90
23069;DHT22;11702;50.856;4.348;2022-08-04T04:25:28;21.40;99.90
23069;DHT22;11702;50.856;4.348;2022-08-04T04:28:22;21.30;99.90
23069;DHT22;11702;50.856;4.348;2022-08-04T04:42:53;21.30;99.90
23069;DHT22;11702;50.856;4.348;2022-08-04T04:49:07;21.10;99.90
23069;DHT22;11702;50.856;4.348;2022-08-04T04:51:30;21.20;99.90
23069;DHT22;11702;50.856;4.348;2022-08-04T04:56:50;21.20;99.90
23069;DHT22;11702;50.856;4.348;2022-08-04T04:59:21;21.30;99.90
23069;DHT22;11702;50.856;4.348;2022-08-04T05:10:03;21.40;99.90
23069;DHT22;11702;50.856;4.348;2022-08-04T05:15:51;21.60;99.90
23069;DHT22;11702;50.856;4.348;2022-08-04T05:18:25;21.40;99.90
23069;DHT22;11702;50.856;4.348;2022-08-04T05:20:57;21.40;99.90
23069;DHT22;11702;50.856;4.348;2022-08-04T05:23:32;21.40;99.90
23069;DHT22;11702;50.856;4.348;2022-08-04T05:26:11;21.50;99.90
23069;DHT22;11702;50.856;4.348;2022-08-04T05:29:06;21.50;99.90
23069;DHT22;11702;50.856;4.348;2022-08-04T05:31:45;21.50;99.90
23069;DHT22;11702;50.856;4.348;2022-08-04T05:34:21;21.60;99.90
23069;DHT22;11702;50.856;4.348;2022-08-04T05:37:14;21.50;99.90
23069;DHT22;11702;50.856;4.348;2022-08-04T05:40:11;21.60;99.90
23069;DHT22;11702;50.856;4.348;2022-08-04T05:42:39;21.60;99.90
23069;DHT22;11702;50.856;4.348;2022-08-04T05:45:07;21.50;99.90
23069;DHT22;11702;50.856;4.348;2022-08-04T05:47:33;21.50;99.90
23069;DHT22;11702;50.856;4.348;2022-08-04T05:50:00;21.50;99.90
23069;DHT22;11702;50.856;4.348;2022-08-04T05:52:27;21.50;99.90
23069;DHT22;11702;50.856;4.348;2022-08-04T05:54:54;21.60;99.90
23069;DHT22;11702;50.856;4.348;2022-08-04T05:57:21;21.70;99.90
23069;DHT22;11702;50.856;4.348;2022-08-04T05:59:48;21.80;99.90
23069;DHT22;11702;50.856;4.348;2022-08-04T06:02:17;22.10;99.90
23069;DHT22;11702;50.856;4.348;2022-08-04T06:04:47;22.30;99.90
23069;DHT22;11702;50.856;4.348;2022-08-04T06:07:13;22.30;99.90
23069;DHT22;11702;50.856;4.348;2022-08-04T06:09:40;22.40;99.90
23069;DHT22;11702;50.856;4.348;2022-08-04T06:12:19;22.30;99.90
23069;DHT22;11702;50.856;4.348;2022-08-04T06:14:49;22.40;99.90
23069;DHT22;11702;50.856;4.348;2022-08-04T06:17:22;22.40;99.90
23069;DHT22;11702;50.856;4.348;2022-08-04T06:19:50;22.40;99.90
23069;DHT22;11702;50.856;4.348;2022-08-04T06:22:17;22.50;99.90
23069;DHT22;11702;50.856;4.348;2022-08-04T06:24:45;22.60;99.90
23069;DHT22;11702;50.856;4.348;2022-08-04T06:27:14;22.80;99.90
23069;DHT22;11702;50.856;4.348;2022-08-04T06:29:41;22.80;99.90
23069;DHT22;11702;50.856;4.348;2022-08-04T06:32:09;22.90;99.90
23069;DHT22;11702;50.856;4.348;2022-08-04T06:34:41;23.00;99.90
23069;DHT22;11702;50.856;4.348;2022-08-04T06:37:08;23.30;99.90
23069;DHT22;11702;50.856;4.348;2022-08-04T06:39:35;23.60;99.90
23069;DHT22;11702;50.856;4.348;2022-08-04T06:42:02;23.60;99.90
23069;DHT22;11702;50.856;4.348;2022-08-04T06:44:29;23.70;99.90
23069;DHT22;11702;50.856;4.348;2022-08-04T06:46:57;24.00;99.90
23069;DHT22;11702;50.856;4.348;2022-08-04T06:49:26;24.10;99.90
23069;DHT22;11702;50.856;4.348;2022-08-04T06:52:15;24.30;99.90
23069;DHT22;11702;50.856;4.348;2022-08-04T06:54:49;24.70;99.90
23069;DHT22;11702;50.856;4.348;2022-08-04T06:57:39;24.80;99.90
23069;DHT22;11702;50.856;4.348;2022-08-04T07:00:14;24.80;99.90
23069;DHT22;11702;50.856;4.348;2022-08-04T07:02:44;25.20;99.90
23069;DHT22;11702;50.856;4.348;2022-08-04T07:05:32;25.60;99.90
23069;DHT22;11702;50.856;4.348;2022-08-04T07:07:58;25.70;99.90
23069;DHT22;11702;50.856;4.348;2022-08-04T07:10:29;25.20;99.90
23069;DHT22;11702;50.856;4.348;2022-08-04T07:12:56;25.00;99.90
23069;DHT22;11702;50.856;4.348;2022-08-04T07:15:22;25.10;99.90
23069;DHT22;11702;50.856;4.348;2022-08-04T07:17:50;25.10;99.90
23069;DHT22;11702;50.856;4.348;2022-08-04T07:20:16;25.10;99.90
23069;DHT22;11702;50.856;4.348;2022-08-04T07:22:43;25.10;99.90
23069;DHT22;11702;50.856;4.348;2022-08-04T07:25:09;25.20;99.90
23069;DHT22;11702;50.856;4.348;2022-08-04T07:27:37;25.60;99.90
23069;DHT22;11702;50.856;4.348;2022-08-04T07:30:05;25.90;99.90
23069;DHT22;11702;50.856;4.348;2022-08-04T07:32:31;26.10;99.90
23069;DHT22;11702;50.856;4.348;2022-08-04T07:34:57;26.00;99.90
23069;DHT22;11702;50.856;4.348;2022-08-04T07:37:24;26.10;99.90
23069;DHT22;11702;50.856;4.348;2022-08-04T07:39:49;26.10;99.90
23069;DHT22;11702;50.856;4.348;2022-08-04T07:42:19;25.90;99.90
23069;DHT22;11702;50.856;4.348;2022-08-04T07:44:45;25.80;99.90
23069;DHT22;11702;50.856;4.348;2022-08-04T07:47:11;25.80;99.90
23069;DHT22;11702;50.856;4.348;2022-08-04T07:49:37;25.80;99.90
23069;DHT22;11702;50.856;4.348;2022-08-04T07:52:03;25.80;99.90
23069;DHT22;11702;50.856;4.348;2022-08-04T07:54:32;25.80;99.90
23069;DHT22;11702;50.856;4.348;2022-08-04T07:56:58;25.50;99.90
23069;DHT22;11702;50.856;4.348;2022-08-04T07:59:24;25.50;99.90
23069;DHT22;11702;50.856;4.348;2022-08-04T08:01:50;25.50;99.90
23069;DHT22;11702;50.856;4.348;2022-08-04T08:04:24;25.60;99.90
23069;DHT22;11702;50.856;4.348;2022-08-04T08:07:25;25.80;99.90
23069;DHT22;11702;50.856;4.348;2022-08-04T08:10:11;25.90;99.90
23069;DHT22;11702;50.856;4.348;2022-08-04T08:12:39;26.10;99.90
23069;DHT22;11702;50.856;4.348;2022-08-04T08:15:10;26.00;99.90
23069;DHT22;11702;50.856;4.348;2022-08-04T08:18:00;26.00;99.90
23069;DHT22;11702;50.856;4.348;2022-08-04T08:20:42;25.90;99.90
23069;DHT22;11702;50.856;4.348;2022-08-04T08:23:25;25.70;99.90
23069;DHT22;11702;50.856;4.348;2022-08-04T08:26:15;25.40;99.90
23069;DHT22;11702;50.856;4.348;2022-08-04T08:28:53;25.20;99.90
23069;DHT22;11702;50.856;4.348;2022-08-04T08:31:27;25.10;99.90
23069;DHT22;11702;50.856;4.348;2022-08-04T08:34:38;24.70;99.90
23069;DHT22;11702;50.856;4.348;2022-08-04T08:57:08;23.50;99.90
23069;DHT22;11702;50.856;4.348;2022-08-04T09:05:23;23.80;99.90
23069;DHT22;11702;50.856;4.348;2022-08-04T09:16:20;23.80;99.90
23069;DHT22;11702;50.856;4.348;2022-08-04T09:18:58;23.70;99.90
23069;DHT22;11702;50.856;4.348;2022-08-04T09:24:21;23.50;99.90
23069;DHT22;11702;50.856;4.348;2022-08-04T09:27:01;23.50;99.90
23069;DHT22;11702;50.856;4.348;2022-08-04T09:29:35;23.30;99.90
23069;DHT22;11702;50.856;4.348;2022-08-04T09:35:15;23.10;99.90
23069;DHT22;11702;50.856;4.348;2022-08-04T09:37:46;23.00;99.90
23069;DHT22;11702;50.856;4.348;2022-08-04T09:40:26;22.80;99.90
23069;DHT22;11702;50.856;4.348;2022-08-04T09:51:15;22.70;99.90
23069;DHT22;11702;50.856;4.348;2022-08-04T09:54:04;22.70;99.90
23069;DHT22;11702;50.856;4.348;2022-08-04T09:56:38;22.80;99.90
23069;DHT22;11702;50.856;4.348;2022-08-04T09:59:27;22.90;99.90
23069;DHT22;11702;50.856;4.348;2022-08-04T10:01:56;23.00;99.90
23069;DHT22;11702;50.856;4.348;2022-08-04T10:04:24;23.20;99.90
23069;DHT22;11702;50.856;4.348;2022-08-04T10:10:00;23.70;99.90
23069;DHT22;11702;50.856;4.348;2022-08-04T10:15:25;23.90;99.90
23069;DHT22;11702;50.856;4.348;2022-08-04T10:26:10;24.00;99.90
23069;DHT22;11702;50.856;4.348;2022-08-04T10:28:45;23.70;99.90
23069;DHT22;11702;50.856;4.348;2022-08-04T10:31:25;23.90;99.90
23069;DHT22;11702;50.856;4.348;2022-08-04T10:34:00;23.90;99.90
23069;DHT22;11702;50.856;4.348;2022-08-04T10:36:34;24.20;99.90
23069;DHT22;11702;50.856;4.348;2022-08-04T10:39:17;24.70;99.90
23069;DHT22;11702;50.856;4.348;2022-08-04T10:42:03;25.00;99.90
23069;DHT22;11702;50.856;4.348;2022-08-04T10:47:36;25.90;99.90
23069;DHT22;11702;50.856;4.348;2022-08-04T10:50:04;25.90;99.90
23069;DHT22;11702;50.856;4.348;2022-08-04T10:52:32;26.10;99.90
23069;DHT22;11702;50.856;4.348;2022-08-04T10:55:16;26.30;99.90
23069;DHT22;11702;50.856;4.348;2022-08-04T10:57:58;26.50;99.90
23069;DHT22;11702;50.856;4.348;2022-08-04T11:00:26;27.00;99.90
23069;DHT22;11702;50.856;4.348;2022-08-04T11:03:12;27.40;99.90
23069;DHT22;11702;50.856;4.348;2022-08-04T11:05:57;27.30;99.90
23069;DHT22;11702;50.856;4.348;2022-08-04T11:08:34;27.40;99.90
23069;DHT22;11702;50.856;4.348;2022-08-04T11:11:07;27.40;99.90
23069;DHT22;11702;50.856;4.348;2022-08-04T11:13:41;27.50;99.90
23069;DHT22;11702;50.856;4.348;2022-08-04T11:16:31;27.40;99.90
23069;DHT22;11702;50.856;4.348;2022-08-04T11:21:55;27.20;99.90
23069;DHT22;11702;50.856;4.348;2022-08-04T11:24:30;27.40;99.90
23069;DHT22;11702;50.856;4.348;2022-08-04T11:27:01;27.50;99.90
23069;DHT22;11702;50.856;4.348;2022-08-04T11:32:25;27.50;99.90
23069;DHT22;11702;50.856;4.348;2022-08-04T11:35:01;27.40;99.90
23069;DHT22;11702;50.856;4.348;2022-08-04T11:37:51;27.20;99.90
23069;DHT22;11702;50.856;4.348;2022-08-04T11:40:32;27.40;99.90
23069;DHT22;11702;50.856;4.348;2022-08-04T11:43:03;27.50;99.90
23069;DHT22;11702;50.856;4.348;2022-08-04T11:45:35;27.40;99.90
23069;DHT22;11702;50.856;4.348;2022-08-04T11:48:23;27.30;99.90
23069;DHT22;11702;50.856;4.348;2022-08-04T11:50:52;27.40;99.90
23069;DHT22;11702;50.856;4.348;2022-08-04T11:53:21;27.70;99.90
23069;DHT22;11702;50.856;4.348;2022-08-04T11:55:51;27.60;99.90
23069;DHT22;11702;50.856;4.348;2022-08-04T11:58:18;27.60;99.90
23069;DHT22;11702;50.856;4.348;2022-08-04T12:00:54;27.50;99.90
23069;DHT22;11702;50.856;4.348;2022-08-04T12:03:38;27.10;99.90
23069;DHT22;11702;50.856;4.348;2022-08-04T12:06:35;27.10;99.90
23069;DHT22;11702;50.856;4.348;2022-08-04T12:17:42;27.70;99.90
23069;DHT22;11702;50.856;4.348;2022-08-04T12:20:16;27.60;99.90
23069;DHT22;11702;50.856;4.348;2022-08-04T12:22:46;27.30;99.90
23069;DHT22;11702;50.856;4.348;2022-08-04T12:25:18;27.20;99.90
23069;DHT22;11702;50.856;4.348;2022-08-04T12:27:54;27.10;99.90
23069;DHT22;11702;50.856;4.348;2022-08-04T12:30:22;27.00;99.90
23069;DHT22;11702;50.856;4.348;2022-08-04T12:35:40;26.70;99.90
23069;DHT22;11702;50.856;4.348;2022-08-04T12:38:11;26.70;99.90
23069;DHT22;11702;50.856;4.348;2022-08-04T12:45:54;27.00;99.90
23069;DHT22;11702;50.856;4.348;2022-08-04T12:48:22;27.00;99.90
23069;DHT22;11702;50.856;4.348;2022-08-04T12:50:51;27.20;99.90
23069;DHT22;11702;50.856;4.348;2022-08-04T12:53:20;27.50;99.90
23069;DHT22;11702;50.856;4.348;2022-08-04T12:55:48;27.90;99.90
23069;DHT22;11702;50.856;4.348;2022-08-04T12:58:19;28.30;99.90
23069;DHT22;11702;50.856;4.348;2022-08-04T13:00:55;28.60;99.90
23069;DHT22;11702;50.856;4.348;2022-08-04T13:03:27;28.80;99.90
23069;DHT22;11702;50.856;4.348;2022-08-04T13:05:53;29.00;99.90
23069;DHT22;11702;50.856;4.348;2022-08-04T13:08:21;29.20;99.90
23069;DHT22;11702;50.856;4.348;2022-08-04T13:10:51;29.30;99.90
23069;DHT22;11702;50.856;4.348;2022-08-04T13:13:23;29.40;99.90
23069;DHT22;11702;50.856;4.348;2022-08-04T13:16:01;29.50;99.90
23069;DHT22;11702;50.856;4.348;2022-08-04T13:18:29;29.80;99.90
23069;DHT22;11702;50.856;4.348;2022-08-04T13:21:08;29.90;99.90
23069;DHT22;11702;50.856;4.348;2022-08-04T13:23:35;30.20;99.90
23069;DHT22;11702;50.856;4.348;2022-08-04T13:26:02;30.60;99.60
23069;DHT22;11702;50.856;4.348;2022-08-04T13:28:30;30.80;98.90
23069;DHT22;11702;50.856;4.348;2022-08-04T13:31:00;31.00;98.50
23069;DHT22;11702;50.856;4.348;2022-08-04T13:33:35;30.80;98.10
23069;DHT22;11702;50.856;4.348;2022-08-04T13:36:02;30.60;98.40
23069;DHT22;11702;50.856;4.348;2022-08-04T13:38:30;30.80;98.30
23069;DHT22;11702;50.856;4.348;2022-08-04T13:41:02;31.00;98.00
23069;DHT22;11702;50.856;4.348;2022-08-04T13:43:40;30.90;98.10
23069;DHT22;11702;50.856;4.348;2022-08-04T13:46:08;30.20;99.20
23069;DHT22;11702;50.856;4.348;2022-08-04T13:48:39;29.70;99.90
23069;DHT22;11702;50.856;4.348;2022-08-04T13:51:08;29.70;99.90
23069;DHT22;11702;50.856;4.348;2022-08-04T13:53:36;29.80;99.90
23069;DHT22;11702;50.856;4.348;2022-08-04T13:56:06;30.20;99.60
23069;DHT22;11702;50.856;4.348;2022-08-04T13:58:34;30.10;99.40
23069;DHT22;11702;50.856;4.348;2022-08-04T14:01:12;30.30;98.90
23069;DHT22;11702;50.856;4.348;2022-08-04T14:06:15;29.80;99.10
23069;DHT22;11702;50.856;4.348;2022-08-04T14:11:14;29.20;99.90
23069;DHT22;11702;50.856;4.348;2022-08-04T14:13:41;28.90;99.90
23069;DHT22;11702;50.856;4.348;2022-08-04T14:16:18;28.80;99.90
23069;DHT22;11702;50.856;4.348;2022-08-04T14:18:45;29.20;99.90
23069;DHT22;11702;50.856;4.348;2022-08-04T14:21:12;29.60;99.90
23069;DHT22;11702;50.856;4.348;2022-08-04T14:23:44;29.90;99.40
23069;DHT22;11702;50.856;4.348;2022-08-04T14:28:40;30.20;98.80
23069;DHT22;11702;50.856;4.348;2022-08-04T14:31:11;30.50;98.60
23069;DHT22;11702;50.856;4.348;2022-08-04T14:33:39;30.50;97.80
23069;DHT22;11702;50.856;4.348;2022-08-04T14:36:06;30.60;97.50
23069;DHT22;11702;50.856;4.348;2022-08-04T14:38:50;30.40;97.40
23069;DHT22;11702;50.856;4.348;2022-08-04T14:41:27;30.50;97.30
23069;DHT22;11702;50.856;4.348;2022-08-04T14:43:55;30.80;96.90
23069;DHT22;11702;50.856;4.348;2022-08-04T14:46:22;31.10;96.60
23069;DHT22;11702;50.856;4.348;2022-08-04T14:49:07;31.10;95.90
23069;DHT22;11702;50.856;4.348;2022-08-04T14:51:44;30.90;96.50
23069;DHT22;11702;50.856;4.348;2022-08-04T14:54:12;30.80;96.60
23069;DHT22;11702;50.856;4.348;2022-08-04T14:56:39;30.90;96.10
23069;DHT22;11702;50.856;4.348;2022-08-04T14:59:09;30.90;95.90
23069;DHT22;11702;50.856;4.348;2022-08-04T15:01:37;30.80;96.30
23069;DHT22;11702;50.856;4.348;2022-08-04T15:04:04;30.60;96.60
23069;DHT22;11702;50.856;4.348;2022-08-04T15:06:33;30.50;96.70
23069;DHT22;11702;50.856;4.348;2022-08-04T15:09:05;30.60;96.60
23069;DHT22;11702;50.856;4.348;2022-08-04T15:11:32;30.30;96.90
23069;DHT22;11702;50.856;4.348;2022-08-04T15:13:58;30.50;96.80
23069;DHT22;11702;50.856;4.348;2022-08-04T15:16:26;30.20;97.20
23069;DHT22;11702;50.856;4.348;2022-08-04T15:18:52;30.10;97.60
23069;DHT22;11702;50.856;4.348;2022-08-04T15:21:19;29.80;98.10
23069;DHT22;11702;50.856;4.348;2022-08-04T15:23:47;29.40;98.60
23069;DHT22;11702;50.856;4.348;2022-08-04T15:26:16;29.10;99.30
23069;DHT22;11702;50.856;4.348;2022-08-04T15:28:50;28.90;99.90
23069;DHT22;11702;50.856;4.348;2022-08-04T15:31:18;28.70;99.90
23069;DHT22;11702;50.856;4.348;2022-08-04T15:33:46;28.70;99.90
23069;DHT22;11702;50.856;4.348;2022-08-04T15:36:15;28.80;99.90
23069;DHT22;11702;50.856;4.348;2022-08-04T15:39:04;28.60;99.90
23069;DHT22;11702;50.856;4.348;2022-08-04T15:49:30;28.90;99.90
23069;DHT22;11702;50.856;4.348;2022-08-04T15:52:06;29.10;99.60
23069;DHT22;11702;50.856;4.348;2022-08-04T15:54:32;29.10;99.40
23069;DHT22;11702;50.856;4.348;2022-08-04T15:57:00;29.20;99.10
23069;DHT22;11702;50.856;4.348;2022-08-04T16:07:57;28.40;99.50
23069;DHT22;11702;50.856;4.348;2022-08-04T16:12:56;28.10;99.90
23069;DHT22;11702;50.856;4.348;2022-08-04T16:15:38;28.00;99.90
23069;DHT22;11702;50.856;4.348;2022-08-04T16:18:04;27.80;99.90
23069;DHT22;11702;50.856;4.348;2022-08-04T16:20:31;27.70;99.90
23069;DHT22;11702;50.856;4.348;2022-08-04T16:23:02;27.60;99.90
23069;DHT22;11702;50.856;4.348;2022-08-04T16:25:49;27.40;99.90
23069;DHT22;11702;50.856;4.348;2022-08-04T16:31:01;27.10;99.90
23069;DHT22;11702;50.856;4.348;2022-08-04T16:33:28;26.90;99.90
23069;DHT22;11702;50.856;4.348;2022-08-04T16:35:55;26.70;99.90
23069;DHT22;11702;50.856;4.348;2022-08-04T16:38:21;26.80;99.90
23069;DHT22;11702;50.856;4.348;2022-08-04T16:40:56;26.80;99.90
23069;DHT22;11702;50.856;4.348;2022-08-04T16:43:25;26.90;99.90
23069;DHT22;11702;50.856;4.348;2022-08-04T16:45:55;26.90;99.90
23069;DHT22;11702;50.856;4.348;2022-08-04T16:48:34;26.70;99.90
23069;DHT22;11702;50.856;4.348;2022-08-04T16:51:07;26.60;99.90
23069;DHT22;11702;50.856;4.348;2022-08-04T16:53:40;26.60;99.90
23069;DHT22;11702;50.856;4.348;2022-08-04T16:56:11;26.60;99.90
23069;DHT22;11702;50.856;4.348;2022-08-04T16:58:40;26.70;99.90
23069;DHT22;11702;50.856;4.348;2022-08-04T17:01:08;26.80;99.90
23069;DHT22;11702;50.856;4.348;2022-08-04T17:03:36;26.80;99.90
23069;DHT22;11702;50.856;4.348;2022-08-04T17:06:07;26.50;99.90
23069;DHT22;11702;50.856;4.348;2022-08-04T17:08:33;26.30;99.90
23069;DHT22;11702;50.856;4.348;2022-08-04T17:11:00;26.40;99.90
23069;DHT22;11702;50.856;4.348;2022-08-04T17:13:31;26.20;99.90
23069;DHT22;11702;50.856;4.348;2022-08-04T17:15:59;26.20;99.90
23069;DHT22;11702;50.856;4.348;2022-08-04T17:18:31;26.20;99.90
23069;DHT22;11702;50.856;4.348;2022-08-04T17:21:02;26.20;99.90
23069;DHT22;11702;50.856;4.348;2022-08-04T17:23:39;26.00;99.90
23069;DHT22;11702;50.856;4.348;2022-08-04T17:26:13;26.10;99.90
23069;DHT22;11702;50.856;4.348;2022-08-04T17:28:40;26.00;99.90
23069;DHT22;11702;50.856;4.348;2022-08-04T17:31:08;26.00;99.90
23069;DHT22;11702;50.856;4.348;2022-08-04T17:33:36;25.80;99.90
23069;DHT22;11702;50.856;4.348;2022-08-04T17:36:03;25.70;99.90
23069;DHT22;11702;50.856;4.348;2022-08-04T17:38:52;25.70;99.90
23069;DHT22;11702;50.856;4.348;2022-08-04T17:41:23;25.70;99.90
23069;DHT22;11702;50.856;4.348;2022-08-04T17:43:58;25.70;99.90
23069;DHT22;11702;50.856;4.348;2022-08-04T17:49:03;25.20;99.90
23069;DHT22;11702;50.856;4.348;2022-08-04T17:51:49;25.10;99.90
23069;DHT22;11702;50.856;4.348;2022-08-04T17:56:54;24.90;99.90
23069;DHT22;11702;50.856;4.348;2022-08-04T17:59:39;24.80;99.90
23069;DHT22;11702;50.856;4.348;2022-08-04T18:02:06;24.70;99.90
23069;DHT22;11702;50.856;4.348;2022-08-04T18:07:12;24.60;99.90
23069;DHT22;11702;50.856;4.348;2022-08-04T18:12:22;24.50;99.90
23069;DHT22;11702;50.856;4.348;2022-08-04T18:14:50;24.50;99.90
23069;DHT22;11702;50.856;4.348;2022-08-04T18:17:37;24.50;99.90
23069;DHT22;11702;50.856;4.348;2022-08-04T18:22:30;24.40;99.90
23069;DHT22;11702;50.856;4.348;2022-08-04T18:24:56;24.30;99.90
23069;DHT22;11702;50.856;4.348;2022-08-04T18:27:23;24.30;99.90
23069;DHT22;11702;50.856;4.348;2022-08-04T18:29:51;24.10;99.90
23069;DHT22;11702;50.856;4.348;2022-08-04T18:32:17;23.90;99.90
23069;DHT22;11702;50.856;4.348;2022-08-04T18:34:42;23.90;99.90
23069;DHT22;11702;50.856;4.348;2022-08-04T18:37:08;23.80;99.90
23069;DHT22;11702;50.856;4.348;2022-08-04T18:39:34;23.70;99.90
23069;DHT22;11702;50.856;4.348;2022-08-04T18:42:00;23.70;99.90
23069;DHT22;11702;50.856;4.348;2022-08-04T18:44:26;23.60;99.90
23069;DHT22;11702;50.856;4.348;2022-08-04T18:46:54;23.50;99.90
23069;DHT22;11702;50.856;4.348;2022-08-04T18:49:20;23.40;99.90
23069;DHT22;11702;50.856;4.348;2022-08-04T18:51:49;23.40;99.90
23069;DHT22;11702;50.856;4.348;2022-08-04T18:54:15;23.20;99.90
23069;DHT22;11702;50.856;4.348;2022-08-04T18:56:41;23.20;99.90
23069;DHT22;11702;50.856;4.348;2022-08-04T18:59:06;23.20;99.90
23069;DHT22;11702;50.856;4.348;2022-08-04T19:01:32;23.10;99.90
23069;DHT22;11702;50.856;4.348;2022-08-04T19:03:58;22.90;99.90
23069;DHT22;11702;50.856;4.348;2022-08-04T19:06:24;22.70;99.90
23069;DHT22;11702;50.856;4.348;2022-08-04T19:08:50;22.20;99.90
23069;DHT22;11702;50.856;4.348;2022-08-04T19:11:15;21.70;99.90
23069;DHT22;11702;50.856;4.348;2022-08-04T19:13:44;21.30;99.90
23069;DHT22;11702;50.856;4.348;2022-08-04T19:16:09;20.90;99.90
23069;DHT22;11702;50.856;4.348;2022-08-04T19:18:35;20.60;99.90
23069;DHT22;11702;50.856;4.348;2022-08-04T19:21:01;20.50;99.90
23069;DHT22;11702;50.856;4.348;2022-08-04T19:23:26;20.40;99.90
23069;DHT22;11702;50.856;4.348;2022-08-04T19:25:53;20.10;99.90
23069;DHT22;11702;50.856;4.348;2022-08-04T19:28:19;20.00;99.90
23069;DHT22;11702;50.856;4.348;2022-08-04T19:30:45;19.80;99.90
23069;DHT22;11702;50.856;4.348;2022-08-04T19:33:11;19.60;99.90
23069;DHT22;11702;50.856;4.348;2022-08-04T19:35:36;19.50;99.90
23069;DHT22;11702;50.856;4.348;2022-08-04T19:38:05;19.30;99.90
23069;DHT22;11702;50.856;4.348;2022-08-04T19:40:31;19.20;99.90
23069;DHT22;11702;50.856;4.348;2022-08-04T19:42:57;19.20;99.90
23069;DHT22;11702;50.856;4.348;2022-08-04T19:45:22;19.10;99.90
23069;DHT22;11702;50.856;4.348;2022-08-04T19:47:48;19.10;99.90
23069;DHT22;11702;50.856;4.348;2022-08-04T19:50:14;19.20;99.90
23069;DHT22;11702;50.856;4.348;2022-08-04T19:52:40;19.20;99.90
23069;DHT22;11702;50.856;4.348;2022-08-04T19:55:06;19.10;99.90
23069;DHT22;11702;50.856;4.348;2022-08-04T19:57:33;19.00;99.90
23069;DHT22;11702;50.856;4.348;2022-08-04T20:00:01;18.90;99.90
23069;DHT22;11702;50.856;4.348;2022-08-04T20:02:28;18.80;99.90
23069;DHT22;11702;50.856;4.348;2022-08-04T20:04:54;18.80;99.90
23069;DHT22;11702;50.856;4.348;2022-08-04T20:07:19;18.80;99.90
23069;DHT22;11702;50.856;4.348;2022-08-04T20:09:46;18.70;99.90
23069;DHT22;11702;50.856;4.348;2022-08-04T20:12:12;18.70;99.90
23069;DHT22;11702;50.856;4.348;2022-08-04T20:14:37;18.70;99.90
23069;DHT22;11702;50.856;4.348;2022-08-04T20:17:03;18.80;99.90